TPOK1: Kansas River, State-Line, KS

                                SHEF ID:       TPOK1     MARAIS DES CYGNES R NR KS-MO ST
STATION TYPE:

STAGE STAGE(2) RIV-FLOW BAT-LOAD
ft ft cfs volt
Ccp-Rev Ccp-Rev Ccp-Rev Ccp-Rev
(America/Chicago)
07/23 00:00 5.56 5.50 733 12.49
07/23 01:00 5.56 5.50 733 12.48
07/23 02:00 5.58 5.48 742 12.46
07/23 03:00 5.56 5.50 733 12.44
07/23 04:00 5.56 5.49 733 12.41
07/23 05:00 5.55 5.49 728 12.38
07/23 06:00 5.57 5.49 738 12.36
07/23 07:00 5.55 5.49 728 12.35
07/23 08:00 5.55 5.48 728 12.34
07/23 09:00 5.55 5.49 728 12.84
07/23 10:00 5.53 5.49 718 ----
07/23 11:00 5.54 5.47 723 12.94
07/23 12:00 5.54 5.48 723 12.91
07/23 13:00 5.54 5.48 723 12.89
07/23 14:00 5.52 5.49 713 13.02
07/23 15:00 5.53 5.48 718 13.00
07/23 16:00 5.55 5.48 728 13.20
07/23 17:00 5.54 5.46 723 13.29
07/23 18:00 5.51 5.46 708 13.03
07/23 19:00 5.53 5.46 718 12.73
07/23 20:00 5.52 5.46 713 12.63
07/23 21:00 5.52 5.47 713 12.57
07/23 22:00 5.52 5.46 713 12.52
07/23 23:00 5.51 5.46 708 12.50
Data processed at Fri 24Jul2026 04:52 GMT

NOTICE: If you are parsing this page

Please convert to using our Data API. Starting early 2026 we will be migrating to: https://water.usace.army.mil with modern pages rendered in JavaScript. When this migration completes you will no longer be able to scrape this page! CWMSDataAPI (CDA)

Timeseries IDs (TSIDs)

TSIDs used from left to right in the data table
MKSL.Stage.Inst.1Hour.0.Ccp-Rev
MKSL.Stage-Alt.Inst.1Hour.0.Ccp-Rev
MKSL.Flow.Inst.1Hour.0.Ccp-Rev
MKSL.Volt-Battery Load.Inst.1Hour.0.Ccp-Rev

                            

All information presented herein is the property of the government of the United States of America and may be revised or deleted at any time without prior notice. Dissemination of this information without the expressed written consent of the Public Affairs Office, Tulsa District U.S. Army Corps of Engineers is strictly prohibited. These data are gathered electronically and, as presented, have NOT undergone any form of quality control. These data are NOT guaranteed to be valid or correct.